KLM703 SAEZ-EHAM
Flight info
| Callsign | KLM703 |
|---|---|
| Flight time | N/A |
| Altitude | 31000 |
| Route | DORVO1E DORVO UN857 OGRUN DCT NIGBI UZ121 PENSO UZ5 UDIGI/N0499F330 UZ5 SEKPO DCT KADAG UZ2 SLI DCT MAVKO DCT GOGSO/N0489F350 DCT GARPO/M083F350 DCT TEGTO DCT SORAD DCT 35N022W/M083F370 40N019W DCT GONAN DCT TAMEL DCT EVBAK DCT GAPLI/N0476F370 DCT GAJIT DCT ENHAQ DCT REDFA |
| Aircraft | B77W/H-SDE1E2E3FGHIJ2J3J4J5M1RWXY/LB1D1 |
Departure
| Time | N/A |
|---|---|
| Airport | Ezeiza International Airport - Ministro Pistarini (SAEZ) |
Arrival
| Time | 2026-04-29 19:40 |
|---|---|
| Airport | Amsterdam Airport Schiphol (EHAM) |
| Time | Latitude | Longitude | Altitude | Speed | Heading |
|---|---|---|---|---|---|
| 2026-04-29 17:31 | 45.24649 | -13.78580 | 34963 ft | 475 kts | 27° |
| 2026-04-29 17:32 | 45.30242 | -13.73684 | 34975 ft | 475 kts | 27° |
| 2026-04-29 17:32 | 45.35876 | -13.68739 | 34975 ft | 476 kts | 27° |
| 2026-04-29 17:33 | 45.41524 | -13.63773 | 35016 ft | 479 kts | 27° |
| 2026-04-29 17:33 | 45.44370 | -13.61269 | 35239 ft | 481 kts | 28° |
| 2026-04-29 17:33 | 45.47215 | -13.58761 | 35632 ft | 480 kts | 28° |
| 2026-04-29 17:34 | 45.50057 | -13.56250 | 35995 ft | 479 kts | 28° |
| 2026-04-29 17:34 | 45.52891 | -13.53745 | 36317 ft | 480 kts | 28° |
| 2026-04-29 17:34 | 45.55735 | -13.51228 | 36607 ft | 480 kts | 29° |
| 2026-04-29 17:34 | 45.58572 | -13.48715 | 36886 ft | 481 kts | 29° |
| 2026-04-29 17:35 | 45.67104 | -13.41136 | 36964 ft | 482 kts | 29° |
| 2026-04-29 17:36 | 45.72780 | -13.36079 | 36970 ft | 479 kts | 30° |
| 2026-04-29 17:36 | 45.78422 | -13.31041 | 36969 ft | 477 kts | 30° |
| 2026-04-29 17:37 | 45.84061 | -13.25993 | 36976 ft | 477 kts | 30° |
| 2026-04-29 17:37 | 45.89701 | -13.20933 | 36975 ft | 479 kts | 30° |
| 2026-04-29 17:38 | 45.95322 | -13.15877 | 36973 ft | 480 kts | 30° |
| 2026-04-29 17:38 | 46.00997 | -13.10759 | 36975 ft | 482 kts | 30° |
| 2026-04-29 17:39 | 46.06704 | -13.05600 | 36973 ft | 484 kts | 30° |
| 2026-04-29 17:39 | 46.12405 | -13.00434 | 36972 ft | 485 kts | 30° |
| 2026-04-29 17:40 | 46.18092 | -12.95268 | 36968 ft | 486 kts | 30° |
| 2026-04-29 17:40 | 46.23816 | -12.90057 | 36970 ft | 486 kts | 30° |
| 2026-04-29 17:41 | 46.29536 | -12.84834 | 36961 ft | 486 kts | 30° |
| 2026-04-29 17:41 | 46.35253 | -12.79600 | 36961 ft | 485 kts | 30° |
| 2026-04-29 17:42 | 46.40955 | -12.74366 | 36959 ft | 485 kts | 30° |
| 2026-04-29 17:42 | 46.46650 | -12.69125 | 36961 ft | 484 kts | 31° |
| 2026-04-29 17:43 | 46.52299 | -12.63918 | 36957 ft | 484 kts | 31° |
| 2026-04-29 17:43 | 46.57981 | -12.58665 | 36956 ft | 484 kts | 31° |
| 2026-04-29 17:44 | 46.63662 | -12.53400 | 36958 ft | 484 kts | 31° |
| 2026-04-29 17:44 | 46.69337 | -12.48128 | 36956 ft | 483 kts | 31° |
| 2026-04-29 17:45 | 46.75004 | -12.42851 | 36957 ft | 483 kts | 31° |
| 2026-04-29 17:45 | 46.80675 | -12.37554 | 36953 ft | 483 kts | 32° |
| 2026-04-29 17:46 | 46.86340 | -12.32249 | 36957 ft | 483 kts | 32° |
| 2026-04-29 17:46 | 46.91968 | -12.26967 | 36954 ft | 483 kts | 32° |
| 2026-04-29 17:47 | 46.97640 | -12.21630 | 36957 ft | 483 kts | 32° |
| 2026-04-29 17:47 | 47.03292 | -12.16298 | 36950 ft | 483 kts | 32° |
| 2026-04-29 17:48 | 47.08945 | -12.10950 | 36952 ft | 483 kts | 32° |
| 2026-04-29 17:48 | 47.14591 | -12.05596 | 36950 ft | 483 kts | 33° |
| 2026-04-29 17:49 | 47.20232 | -12.00233 | 36957 ft | 483 kts | 33° |
| 2026-04-29 17:49 | 47.25841 | -11.94887 | 36948 ft | 483 kts | 33° |
| 2026-04-29 17:50 | 47.31478 | -11.89500 | 36949 ft | 483 kts | 33° |
| 2026-04-29 17:50 | 47.37123 | -11.84093 | 36951 ft | 483 kts | 33° |
| 2026-04-29 17:51 | 47.42755 | -11.78683 | 36946 ft | 483 kts | 33° |
| 2026-04-29 17:51 | 47.48349 | -11.73295 | 36948 ft | 483 kts | 34° |
| 2026-04-29 17:52 | 47.53969 | -11.67869 | 36950 ft | 483 kts | 34° |
| 2026-04-29 17:52 | 47.59607 | -11.62412 | 36952 ft | 483 kts | 34° |
| 2026-04-29 17:53 | 47.65235 | -11.56948 | 36947 ft | 483 kts | 34° |
| 2026-04-29 17:53 | 47.70831 | -11.51503 | 36948 ft | 483 kts | 34° |
| 2026-04-29 17:54 | 47.76486 | -11.45985 | 36947 ft | 483 kts | 34° |
| 2026-04-29 17:54 | 47.82072 | -11.40520 | 36947 ft | 483 kts | 34° |
| 2026-04-29 17:55 | 47.87701 | -11.35001 | 36950 ft | 483 kts | 34° |
| 2026-04-29 17:55 | 47.93316 | -11.29479 | 36951 ft | 483 kts | 35° |
| 2026-04-29 17:56 | 47.98931 | -11.23943 | 36949 ft | 484 kts | 35° |
| 2026-04-29 17:56 | 48.04515 | -11.18420 | 36954 ft | 484 kts | 35° |
| 2026-04-29 17:57 | 48.10128 | -11.12858 | 36956 ft | 484 kts | 35° |
| 2026-04-29 17:57 | 48.15732 | -11.07285 | 36956 ft | 483 kts | 35° |
| 2026-04-29 17:58 | 48.21326 | -11.01711 | 36958 ft | 483 kts | 36° |
| 2026-04-29 17:58 | 48.26899 | -10.96145 | 36958 ft | 483 kts | 36° |
| 2026-04-29 17:59 | 48.32494 | -10.90538 | 36957 ft | 483 kts | 36° |
| 2026-04-29 17:59 | 48.38088 | -10.84918 | 36964 ft | 483 kts | 36° |
| 2026-04-29 18:00 | 48.42734 | -10.80239 | 36965 ft | 483 kts | 36° |
| 2026-04-29 18:00 | 48.48318 | -10.74601 | 36963 ft | 483 kts | 36° |
| 2026-04-29 18:01 | 48.54822 | -10.68014 | 36964 ft | 484 kts | 36° |
| 2026-04-29 18:01 | 48.59511 | -10.63254 | 36961 ft | 484 kts | 36° |
| 2026-04-29 18:02 | 48.65070 | -10.57596 | 36964 ft | 485 kts | 37° |
| 2026-04-29 18:02 | 48.70635 | -10.51813 | 36956 ft | 484 kts | 41° |
| 2026-04-29 18:03 | 48.75557 | -10.44917 | 36932 ft | 479 kts | 52° |
| 2026-04-29 18:03 | 48.79805 | -10.37166 | 36957 ft | 478 kts | 54° |
| 2026-04-29 18:04 | 48.83994 | -10.29388 | 36963 ft | 479 kts | 53° |
| 2026-04-29 18:04 | 48.88250 | -10.21572 | 36959 ft | 480 kts | 53° |
| 2026-04-29 18:05 | 48.92522 | -10.13754 | 36959 ft | 480 kts | 53° |
| 2026-04-29 18:05 | 48.96758 | -10.05977 | 36960 ft | 480 kts | 53° |
| 2026-04-29 18:06 | 49.01009 | -9.98126 | 36959 ft | 480 kts | 54° |
| 2026-04-29 18:06 | 49.05156 | -9.90159 | 36961 ft | 480 kts | 55° |
| 2026-04-29 18:07 | 49.09265 | -9.82140 | 36962 ft | 480 kts | 55° |
| 2026-04-29 18:07 | 49.13379 | -9.74110 | 36964 ft | 480 kts | 55° |
| 2026-04-29 18:08 | 49.17510 | -9.66052 | 36965 ft | 482 kts | 55° |
| 2026-04-29 18:08 | 49.21648 | -9.57968 | 36965 ft | 482 kts | 55° |
| 2026-04-29 18:09 | 49.25755 | -9.49922 | 36973 ft | 482 kts | 55° |
| 2026-04-29 18:09 | 49.29876 | -9.41821 | 36978 ft | 481 kts | 55° |
| 2026-04-29 18:10 | 49.33983 | -9.33720 | 36978 ft | 481 kts | 55° |
| 2026-04-29 18:10 | 49.38096 | -9.25583 | 36979 ft | 481 kts | 55° |
| 2026-04-29 18:11 | 49.42195 | -9.17449 | 36979 ft | 481 kts | 55° |
| 2026-04-29 18:11 | 49.46261 | -9.09356 | 36982 ft | 481 kts | 56° |
| 2026-04-29 18:12 | 49.50350 | -9.01194 | 36983 ft | 481 kts | 56° |
| 2026-04-29 18:12 | 49.54428 | -8.93027 | 36987 ft | 481 kts | 56° |
| 2026-04-29 18:13 | 49.58499 | -8.84851 | 36986 ft | 481 kts | 56° |
| 2026-04-29 18:13 | 49.62571 | -8.76645 | 36992 ft | 481 kts | 56° |
| 2026-04-29 18:14 | 49.66602 | -8.68499 | 36990 ft | 481 kts | 56° |
| 2026-04-29 18:14 | 49.70656 | -8.60278 | 36994 ft | 480 kts | 56° |
| 2026-04-29 18:15 | 49.74704 | -8.52045 | 37003 ft | 480 kts | 57° |
| 2026-04-29 18:15 | 49.78736 | -8.43818 | 36997 ft | 479 kts | 57° |
| 2026-04-29 18:16 | 49.82758 | -8.35587 | 36998 ft | 478 kts | 57° |
| 2026-04-29 18:16 | 49.86741 | -8.27410 | 37001 ft | 478 kts | 57° |
| 2026-04-29 18:17 | 49.90741 | -8.19173 | 37002 ft | 478 kts | 57° |
| 2026-04-29 18:17 | 49.94732 | -8.10928 | 37007 ft | 478 kts | 57° |
| 2026-04-29 18:18 | 49.98670 | -8.02610 | 37006 ft | 475 kts | 61° |
| 2026-04-29 18:18 | 50.01743 | -7.93593 | 37012 ft | 469 kts | 72° |
| 2026-04-29 18:19 | 50.04131 | -7.84163 | 37014 ft | 469 kts | 73° |
| 2026-04-29 18:19 | 50.06485 | -7.74688 | 37021 ft | 469 kts | 73° |
| 2026-04-29 18:20 | 50.08862 | -7.65201 | 37019 ft | 470 kts | 73° |
| 2026-04-29 18:20 | 50.11233 | -7.55783 | 37020 ft | 471 kts | 73° |
| 2026-04-29 18:21 | 50.13624 | -7.46275 | 37022 ft | 471 kts | 73° |
| 2026-04-29 18:21 | 50.16004 | -7.36768 | 37028 ft | 471 kts | 73° |
| 2026-04-29 18:22 | 50.18380 | -7.27229 | 37028 ft | 471 kts | 73° |
| 2026-04-29 18:22 | 50.20729 | -7.17756 | 37022 ft | 471 kts | 73° |
| 2026-04-29 18:23 | 50.23086 | -7.08212 | 37030 ft | 471 kts | 73° |
| 2026-04-29 18:23 | 50.25435 | -6.98658 | 37033 ft | 471 kts | 73° |
| 2026-04-29 18:24 | 50.27777 | -6.89095 | 37028 ft | 470 kts | 73° |
| 2026-04-29 18:24 | 50.30108 | -6.79531 | 37030 ft | 470 kts | 73° |
| 2026-04-29 18:25 | 50.32418 | -6.70013 | 37037 ft | 470 kts | 74° |
| 2026-04-29 18:25 | 50.34734 | -6.60427 | 37033 ft | 470 kts | 74° |
| 2026-04-29 18:26 | 50.37044 | -6.50825 | 37036 ft | 470 kts | 74° |
| 2026-04-29 18:26 | 50.39343 | -6.41229 | 37036 ft | 471 kts | 74° |
| 2026-04-29 18:27 | 50.41638 | -6.31603 | 37034 ft | 471 kts | 74° |
| 2026-04-29 18:27 | 50.43912 | -6.22025 | 37037 ft | 471 kts | 74° |
| 2026-04-29 18:28 | 50.46190 | -6.12387 | 37040 ft | 472 kts | 74° |
| 2026-04-29 18:28 | 50.48468 | -6.02709 | 37044 ft | 472 kts | 74° |
| 2026-04-29 18:29 | 50.50741 | -5.93009 | 37045 ft | 472 kts | 74° |
| 2026-04-29 18:29 | 50.52986 | -5.83380 | 37045 ft | 472 kts | 74° |
| 2026-04-29 18:30 | 50.55240 | -5.73671 | 37046 ft | 472 kts | 74° |
| 2026-04-29 18:30 | 50.57481 | -5.63974 | 37046 ft | 472 kts | 74° |
| 2026-04-29 18:31 | 50.59715 | -5.54266 | 37054 ft | 471 kts | 75° |
| 2026-04-29 18:31 | 50.61940 | -5.44550 | 37052 ft | 471 kts | 75° |
| 2026-04-29 18:32 | 50.64150 | -5.34855 | 37059 ft | 470 kts | 75° |
| 2026-04-29 18:32 | 50.67440 | -5.20341 | 37066 ft | 470 kts | 75° |
| 2026-04-29 18:33 | 50.69631 | -5.10619 | 37065 ft | 470 kts | 75° |
| 2026-04-29 18:33 | 50.71811 | -5.00900 | 37073 ft | 469 kts | 75° |
| 2026-04-29 18:34 | 50.73616 | -4.92820 | 37066 ft | 469 kts | 75° |
| 2026-04-29 18:34 | 50.76124 | -4.81542 | 37084 ft | 468 kts | 75° |
| 2026-04-29 18:35 | 50.78273 | -4.71824 | 37069 ft | 468 kts | 75° |
| 2026-04-29 18:35 | 50.80412 | -4.62113 | 37085 ft | 467 kts | 75° |
| 2026-04-29 18:36 | 50.82541 | -4.52395 | 37085 ft | 467 kts | 75° |
| 2026-04-29 18:36 | 50.84648 | -4.42735 | 37087 ft | 467 kts | 75° |
| 2026-04-29 18:37 | 50.86759 | -4.33010 | 37091 ft | 467 kts | 75° |
| 2026-04-29 18:37 | 50.88862 | -4.23281 | 37102 ft | 466 kts | 75° |
| 2026-04-29 18:38 | 50.90941 | -4.13614 | 37104 ft | 466 kts | 75° |
| 2026-04-29 18:38 | 50.93023 | -4.03885 | 37103 ft | 465 kts | 75° |
| 2026-04-29 18:39 | 50.95094 | -3.94165 | 37111 ft | 465 kts | 75° |
| 2026-04-29 18:39 | 50.97154 | -3.84446 | 37109 ft | 464 kts | 75° |
| 2026-04-29 18:40 | 50.99192 | -3.74784 | 37118 ft | 463 kts | 76° |
| 2026-04-29 18:40 | 51.01232 | -3.65073 | 37126 ft | 463 kts | 76° |
| 2026-04-29 18:41 | 51.05280 | -3.45651 | 37133 ft | 463 kts | 76° |
| 2026-04-29 18:42 | 51.07296 | -3.35908 | 37140 ft | 464 kts | 76° |
| 2026-04-29 18:42 | 51.09292 | -3.26214 | 37147 ft | 464 kts | 76° |
| 2026-04-29 18:43 | 51.11298 | -3.16422 | 37149 ft | 465 kts | 76° |
| 2026-04-29 18:43 | 51.13297 | -3.06617 | 37150 ft | 466 kts | 76° |
| 2026-04-29 18:44 | 51.15294 | -2.96779 | 37156 ft | 467 kts | 76° |
| 2026-04-29 18:44 | 51.17287 | -2.86905 | 37153 ft | 468 kts | 76° |
| 2026-04-29 18:45 | 51.19274 | -2.77014 | 37182 ft | 468 kts | 76° |
| 2026-04-29 18:45 | 51.21244 | -2.67155 | 37187 ft | 469 kts | 76° |
| 2026-04-29 18:46 | 51.23216 | -2.57235 | 37166 ft | 470 kts | 76° |
| 2026-04-29 18:46 | 51.25187 | -2.47274 | 37187 ft | 470 kts | 76° |
| 2026-04-29 18:47 | 51.27147 | -2.37315 | 37177 ft | 469 kts | 76° |
| 2026-04-29 18:47 | 51.29082 | -2.27429 | 37185 ft | 469 kts | 76° |
| 2026-04-29 18:48 | 51.31020 | -2.17481 | 37187 ft | 468 kts | 76° |
| 2026-04-29 18:48 | 51.32948 | -2.07533 | 37190 ft | 468 kts | 75° |
| 2026-04-29 18:49 | 51.34543 | -1.99271 | 37194 ft | 467 kts | 75° |
| 2026-04-29 18:49 | 51.36681 | -1.89457 | 37195 ft | 467 kts | 72° |
| 2026-04-29 18:50 | 51.38906 | -1.79706 | 37193 ft | 466 kts | 73° |
| 2026-04-29 18:50 | 51.41051 | -1.69915 | 37200 ft | 463 kts | 74° |
| 2026-04-29 18:51 | 51.42934 | -1.60134 | 37211 ft | 461 kts | 76° |
| 2026-04-29 18:51 | 51.44728 | -1.50280 | 37212 ft | 460 kts | 76° |
| 2026-04-29 18:52 | 51.46527 | -1.40453 | 37228 ft | 459 kts | 76° |
| 2026-04-29 18:52 | 51.48339 | -1.30634 | 37234 ft | 458 kts | 76° |
| 2026-04-29 18:53 | 51.50135 | -1.20909 | 37232 ft | 457 kts | 76° |
| 2026-04-29 18:53 | 51.51930 | -1.11129 | 37239 ft | 456 kts | 76° |
| 2026-04-29 18:54 | 51.53716 | -1.01360 | 37239 ft | 456 kts | 76° |
| 2026-04-29 18:54 | 51.55493 | -0.91579 | 37236 ft | 456 kts | 76° |
| 2026-04-29 18:55 | 51.57267 | -0.81762 | 37235 ft | 457 kts | 76° |
| 2026-04-29 18:55 | 51.59019 | -0.72011 | 37235 ft | 457 kts | 76° |
| 2026-04-29 18:56 | 51.60776 | -0.62183 | 37239 ft | 457 kts | 76° |
| 2026-04-29 18:56 | 51.62529 | -0.52323 | 37242 ft | 458 kts | 76° |
| 2026-04-29 18:57 | 51.64275 | -0.42449 | 37239 ft | 459 kts | 76° |
| 2026-04-29 18:57 | 51.65145 | -0.37505 | 37372 ft | 458 kts | 76° |
| 2026-04-29 18:57 | 51.66009 | -0.32579 | 37374 ft | 458 kts | 76° |
| 2026-04-29 18:58 | 51.67736 | -0.22703 | 37376 ft | 457 kts | 76° |
| 2026-04-29 18:58 | 51.69453 | -0.12835 | 37376 ft | 457 kts | 76° |
| 2026-04-29 18:59 | 51.71146 | -0.03039 | 37348 ft | 457 kts | 76° |
| 2026-04-29 18:59 | 51.72841 | 0.06822 | 37277 ft | 456 kts | 77° |
| 2026-04-29 19:00 | 51.74527 | 0.16677 | 37286 ft | 455 kts | 77° |
| 2026-04-29 19:00 | 51.76201 | 0.26523 | 37291 ft | 454 kts | 77° |
| 2026-04-29 19:01 | 51.77862 | 0.36348 | 37289 ft | 453 kts | 77° |
| 2026-04-29 19:01 | 51.79513 | 0.46174 | 37290 ft | 452 kts | 77° |
| 2026-04-29 19:02 | 51.80871 | 0.54295 | 37285 ft | 452 kts | 77° |
| 2026-04-29 19:02 | 51.82776 | 0.65752 | 37276 ft | 451 kts | 77° |
| 2026-04-29 19:03 | 51.84397 | 0.75559 | 37278 ft | 451 kts | 77° |
| 2026-04-29 19:03 | 51.86006 | 0.85353 | 37293 ft | 450 kts | 77° |
| 2026-04-29 19:04 | 51.87594 | 0.95076 | 37292 ft | 449 kts | 77° |
| 2026-04-29 19:04 | 51.89183 | 1.04854 | 37289 ft | 448 kts | 77° |
| 2026-04-29 19:05 | 51.90764 | 1.14649 | 37293 ft | 448 kts | 77° |
| 2026-04-29 19:05 | 51.91549 | 1.19536 | 37138 ft | 450 kts | 77° |
| 2026-04-29 19:05 | 51.92333 | 1.24425 | 36635 ft | 452 kts | 77° |
| 2026-04-29 19:06 | 51.93117 | 1.29329 | 36176 ft | 446 kts | 77° |
| 2026-04-29 19:06 | 51.93890 | 1.34180 | 35693 ft | 441 kts | 77° |
| 2026-04-29 19:06 | 51.95403 | 1.43708 | 34721 ft | 432 kts | 77° |
| 2026-04-29 19:07 | 51.96146 | 1.48412 | 34220 ft | 428 kts | 77° |
| 2026-04-29 19:07 | 51.96634 | 1.51504 | 33871 ft | 426 kts | 77° |
| 2026-04-29 19:07 | 51.97595 | 1.57620 | 33201 ft | 420 kts | 77° |
| 2026-04-29 19:07 | 51.98312 | 1.62196 | 32726 ft | 415 kts | 77° |
| 2026-04-29 19:08 | 51.99018 | 1.66717 | 32239 ft | 411 kts | 78° |
| 2026-04-29 19:08 | 51.99715 | 1.71197 | 31779 ft | 407 kts | 77° |
| 2026-04-29 19:08 | 52.00406 | 1.75640 | 31321 ft | 404 kts | 78° |
| 2026-04-29 19:08 | 52.01088 | 1.80041 | 30868 ft | 400 kts | 77° |
| 2026-04-29 19:09 | 52.01762 | 1.84409 | 30406 ft | 397 kts | 78° |
| 2026-04-29 19:09 | 52.02432 | 1.88757 | 29894 ft | 395 kts | 78° |
| 2026-04-29 19:09 | 52.03087 | 1.93019 | 29408 ft | 391 kts | 78° |
| 2026-04-29 19:09 | 52.03739 | 1.97273 | 28945 ft | 387 kts | 78° |
| 2026-04-29 19:10 | 52.04386 | 2.01508 | 28486 ft | 384 kts | 78° |
| 2026-04-29 19:10 | 52.05028 | 2.05712 | 28033 ft | 381 kts | 78° |
| 2026-04-29 19:10 | 52.05660 | 2.09873 | 27566 ft | 378 kts | 78° |
| 2026-04-29 19:10 | 52.06287 | 2.14006 | 27113 ft | 375 kts | 78° |
| 2026-04-29 19:11 | 52.06909 | 2.18118 | 26675 ft | 373 kts | 78° |
| 2026-04-29 19:11 | 52.07524 | 2.22194 | 26227 ft | 371 kts | 78° |
| 2026-04-29 19:11 | 52.08135 | 2.26253 | 25790 ft | 369 kts | 78° |
| 2026-04-29 19:11 | 52.08742 | 2.30295 | 25347 ft | 367 kts | 78° |
| 2026-04-29 19:12 | 52.09345 | 2.34260 | 24912 ft | 366 kts | 76° |
| 2026-04-29 19:12 | 52.10198 | 2.38199 | 24497 ft | 369 kts | 68° |
| 2026-04-29 19:12 | 52.11250 | 2.41959 | 24330 ft | 363 kts | 68° |
| 2026-04-29 19:12 | 52.11940 | 2.44426 | 24196 ft | 360 kts | 68° |
| 2026-04-29 19:13 | 52.13316 | 2.49373 | 23788 ft | 358 kts | 68° |
| 2026-04-29 19:13 | 52.14337 | 2.53066 | 23459 ft | 356 kts | 68° |
| 2026-04-29 19:13 | 52.15349 | 2.56742 | 23162 ft | 354 kts | 68° |
| 2026-04-29 19:13 | 52.16352 | 2.60396 | 22837 ft | 352 kts | 68° |
| 2026-04-29 19:14 | 52.17347 | 2.64034 | 22540 ft | 350 kts | 68° |
| 2026-04-29 19:14 | 52.18327 | 2.67622 | 22217 ft | 349 kts | 68° |
| 2026-04-29 19:14 | 52.19310 | 2.71227 | 21929 ft | 347 kts | 68° |
| 2026-04-29 19:14 | 52.20291 | 2.74835 | 21621 ft | 346 kts | 68° |
| 2026-04-29 19:15 | 52.21260 | 2.78402 | 21377 ft | 343 kts | 68° |
| 2026-04-29 19:15 | 52.22224 | 2.81959 | 21063 ft | 342 kts | 68° |
| 2026-04-29 19:15 | 52.23185 | 2.85511 | 20796 ft | 340 kts | 68° |
| 2026-04-29 19:15 | 52.24125 | 2.88986 | 20543 ft | 338 kts | 68° |
| 2026-04-29 19:16 | 52.25073 | 2.92501 | 20272 ft | 337 kts | 68° |
| 2026-04-29 19:16 | 52.26016 | 2.96000 | 20009 ft | 335 kts | 68° |
| 2026-04-29 19:16 | 52.26952 | 2.99479 | 19743 ft | 334 kts | 68° |
| 2026-04-29 19:16 | 52.27887 | 3.02958 | 19443 ft | 334 kts | 68° |
| 2026-04-29 19:17 | 52.28814 | 3.06415 | 19225 ft | 332 kts | 68° |
| 2026-04-29 19:17 | 52.29737 | 3.09858 | 18980 ft | 330 kts | 68° |
| 2026-04-29 19:17 | 52.30643 | 3.13246 | 18743 ft | 329 kts | 68° |
| 2026-04-29 19:17 | 52.31556 | 3.16667 | 18441 ft | 328 kts | 68° |
| 2026-04-29 19:18 | 52.32469 | 3.20089 | 18176 ft | 326 kts | 68° |
| 2026-04-29 19:18 | 52.33079 | 3.22379 | 18035 ft | 324 kts | 68° |
| 2026-04-29 19:18 | 52.34266 | 3.26840 | 17710 ft | 322 kts | 68° |
| 2026-04-29 19:18 | 52.35153 | 3.30184 | 17435 ft | 320 kts | 68° |
| 2026-04-29 19:19 | 52.36037 | 3.33515 | 17101 ft | 317 kts | 68° |
| 2026-04-29 19:19 | 52.36911 | 3.36819 | 16723 ft | 315 kts | 68° |
| 2026-04-29 19:19 | 52.37776 | 3.40091 | 16341 ft | 312 kts | 68° |
| 2026-04-29 19:19 | 52.38633 | 3.43336 | 15965 ft | 310 kts | 68° |
| 2026-04-29 19:20 | 52.39484 | 3.46564 | 15596 ft | 307 kts | 68° |
| 2026-04-29 19:20 | 52.40327 | 3.49771 | 15224 ft | 305 kts | 68° |
| 2026-04-29 19:20 | 52.41166 | 3.52963 | 14853 ft | 303 kts | 68° |
| 2026-04-29 19:20 | 52.41986 | 3.56087 | 14482 ft | 302 kts | 68° |
| 2026-04-29 19:21 | 52.42811 | 3.59234 | 14117 ft | 300 kts | 68° |
| 2026-04-29 19:21 | 52.43632 | 3.62369 | 13699 ft | 298 kts | 68° |
| 2026-04-29 19:21 | 52.44448 | 3.65492 | 13307 ft | 296 kts | 68° |
| 2026-04-29 19:21 | 52.45257 | 3.68592 | 12919 ft | 294 kts | 68° |
| 2026-04-29 19:22 | 52.46059 | 3.71671 | 12546 ft | 292 kts | 68° |
| 2026-04-29 19:22 | 52.46857 | 3.74734 | 12179 ft | 290 kts | 68° |
| 2026-04-29 19:22 | 52.47647 | 3.77773 | 11807 ft | 289 kts | 68° |
| 2026-04-29 19:22 | 52.48432 | 3.80798 | 11452 ft | 287 kts | 68° |
| 2026-04-29 19:23 | 52.49213 | 3.83806 | 11093 ft | 286 kts | 68° |
| 2026-04-29 19:23 | 52.49988 | 3.86800 | 10752 ft | 284 kts | 68° |
| 2026-04-29 19:23 | 52.50738 | 3.89700 | 10634 ft | 274 kts | 68° |
| 2026-04-29 19:23 | 52.51471 | 3.92533 | 10501 ft | 266 kts | 68° |
| 2026-04-29 19:24 | 52.52100 | 3.95302 | 10370 ft | 251 kts | 81° |
| 2026-04-29 19:24 | 52.52120 | 3.98118 | 10184 ft | 246 kts | 96° |
| 2026-04-29 19:24 | 52.51657 | 4.00796 | 10078 ft | 242 kts | 109° |
| 2026-04-29 19:24 | 52.51025 | 4.03359 | 10083 ft | 244 kts | 109° |
| 2026-04-29 19:25 | 52.50373 | 4.05999 | 10045 ft | 254 kts | 110° |
| 2026-04-29 19:25 | 52.49705 | 4.08703 | 9909 ft | 257 kts | 110° |
| 2026-04-29 19:25 | 52.49034 | 4.11426 | 9628 ft | 256 kts | 110° |
| 2026-04-29 19:25 | 52.48368 | 4.14131 | 9305 ft | 255 kts | 110° |
| 2026-04-29 19:26 | 52.47707 | 4.16817 | 8984 ft | 254 kts | 110° |
| 2026-04-29 19:26 | 52.47044 | 4.19505 | 8653 ft | 253 kts | 110° |
| 2026-04-29 19:26 | 52.46317 | 4.22047 | 8337 ft | 247 kts | 114° |
| 2026-04-29 19:26 | 52.45578 | 4.24575 | 8048 ft | 245 kts | 112° |
| 2026-04-29 19:27 | 52.44867 | 4.27096 | 7840 ft | 240 kts | 112° |
| 2026-04-29 19:27 | 52.44175 | 4.29564 | 7575 ft | 239 kts | 112° |
| 2026-04-29 19:27 | 52.43483 | 4.32044 | 7357 ft | 237 kts | 112° |
| 2026-04-29 19:27 | 52.42800 | 4.34501 | 7363 ft | 240 kts | 112° |
| 2026-04-29 19:28 | 52.42105 | 4.37004 | 7354 ft | 239 kts | 112° |
| 2026-04-29 19:28 | 52.41437 | 4.39404 | 7344 ft | 230 kts | 112° |
| 2026-04-29 19:28 | 52.40785 | 4.41736 | 7340 ft | 223 kts | 112° |
| 2026-04-29 19:28 | 52.40138 | 4.44042 | 7341 ft | 222 kts | 112° |
| 2026-04-29 19:29 | 52.39647 | 4.46416 | 7350 ft | 222 kts | 103° |
| 2026-04-29 19:29 | 52.39253 | 4.48883 | 7354 ft | 225 kts | 104° |
| 2026-04-29 19:29 | 52.38812 | 4.51354 | 7358 ft | 228 kts | 105° |
| 2026-04-29 19:29 | 52.38320 | 4.53811 | 7345 ft | 225 kts | 107° |
| 2026-04-29 19:30 | 52.37724 | 4.56141 | 7324 ft | 221 kts | 123° |
| 2026-04-29 19:30 | 52.36515 | 4.57749 | 7352 ft | 233 kts | 154° |
| 2026-04-29 19:30 | 52.34876 | 4.58133 | 7323 ft | 246 kts | 177° |
| 2026-04-29 19:30 | 52.33164 | 4.57895 | 7045 ft | 255 kts | 181° |
| 2026-04-29 19:31 | 52.31387 | 4.57545 | 6680 ft | 258 kts | 182° |
| 2026-04-29 19:31 | 52.29607 | 4.57146 | 6303 ft | 258 kts | 188° |
| 2026-04-29 19:31 | 52.27973 | 4.55832 | 5888 ft | 270 kts | 218° |
| 2026-04-29 19:31 | 52.26828 | 4.53383 | 5511 ft | 275 kts | 238° |
| 2026-04-29 19:32 | 52.25956 | 4.50581 | 5122 ft | 276 kts | 241° |
| 2026-04-29 19:32 | 52.25158 | 4.47789 | 4651 ft | 265 kts | 242° |
| 2026-04-29 19:32 | 52.24405 | 4.45107 | 4184 ft | 255 kts | 242° |
| 2026-04-29 19:32 | 52.23688 | 4.42517 | 3720 ft | 247 kts | 242° |
| 2026-04-29 19:33 | 52.22899 | 4.40112 | 3251 ft | 233 kts | 222° |
| 2026-04-29 19:33 | 52.21659 | 4.38782 | 3007 ft | 211 kts | 184° |
| 2026-04-29 19:33 | 52.20258 | 4.38900 | 2968 ft | 198 kts | 152° |
| 2026-04-29 19:33 | 52.19123 | 4.39955 | 2753 ft | 175 kts | 129° |
| 2026-04-29 19:34 | 52.18640 | 4.41603 | 2443 ft | 158 kts | 95° |
| 2026-04-29 19:34 | 52.18585 | 4.43400 | 2248 ft | 160 kts | 92° |
| 2026-04-29 19:34 | 52.18537 | 4.45186 | 2098 ft | 154 kts | 89° |
| 2026-04-29 19:34 | 52.18573 | 4.45751 | 2076 ft | 154 kts | 78° |
| 2026-04-29 19:35 | 52.20294 | 4.51297 | 2001 ft | 158 kts | 64° |
| 2026-04-29 19:35 | 52.20864 | 4.52814 | 1985 ft | 159 kts | 63° |
| 2026-04-29 19:36 | 52.21446 | 4.54337 | 1999 ft | 159 kts | 63° |
| 2026-04-29 19:36 | 52.22036 | 4.55870 | 1985 ft | 160 kts | 63° |
| 2026-04-29 19:36 | 52.22624 | 4.57396 | 2001 ft | 158 kts | 63° |
| 2026-04-29 19:36 | 52.23210 | 4.58919 | 1984 ft | 159 kts | 62° |
| 2026-04-29 19:37 | 52.23790 | 4.60421 | 1916 ft | 153 kts | 63° |
| 2026-04-29 19:37 | 52.24157 | 4.61371 | 1767 ft | 145 kts | 63° |
| 2026-04-29 19:37 | 52.24851 | 4.63174 | 1506 ft | 136 kts | 63° |
| 2026-04-29 19:37 | 52.25348 | 4.64466 | 1370 ft | 135 kts | 64° |
| 2026-04-29 19:38 | 52.25844 | 4.65758 | 1164 ft | 130 kts | 63° |
| 2026-04-29 19:38 | 52.26311 | 4.66970 | 998 ft | 124 kts | 63° |
| 2026-04-29 19:38 | 52.26761 | 4.68143 | 812 ft | 122 kts | 62° |
| 2026-04-29 19:38 | 52.27221 | 4.69344 | 665 ft | 129 kts | 60° |
| 2026-04-29 19:39 | 52.27697 | 4.70576 | 473 ft | 127 kts | 59° |
| 2026-04-29 19:39 | 52.28156 | 4.71777 | 309 ft | 121 kts | 59° |
| 2026-04-29 19:39 | 52.28614 | 4.72949 | 149 ft | 126 kts | 59° |
| 2026-04-29 19:39 | 52.29091 | 4.74191 | 17 ft | 128 kts | 60° |
| 2026-04-29 19:40 | 52.29516 | 4.75295 | 3 ft | 97 kts | 58° |
| 2026-04-29 19:40 | 52.29794 | 4.76016 | 1 ft | 53 kts | 58° |
| 2026-04-29 19:40 | 52.29916 | 4.76337 | 1 ft | 20 kts | 58° |
| 2026-04-29 19:40 | 52.30000 | 4.76504 | 3 ft | 19 kts | 38° |
| 2026-04-29 19:41 | 52.30115 | 4.76614 | 4 ft | 19 kts | 28° |
| 2026-04-29 19:41 | 52.30192 | 4.76681 | 4 ft | 10 kts | 27° |
| 2026-04-29 19:41 | 52.30256 | 4.76735 | 4 ft | 10 kts | 27° |
| 2026-04-29 19:41 | 52.30309 | 4.76808 | 4 ft | 10 kts | 58° |
| 2026-04-29 19:42 | 52.30347 | 4.76911 | 4 ft | 12 kts | 59° |
| 2026-04-29 19:42 | 52.30379 | 4.76998 | 4 ft | 15 kts | 58° |
| 2026-04-29 19:42 | 52.30451 | 4.77188 | 4 ft | 15 kts | 58° |
| 2026-04-29 19:42 | 52.30506 | 4.77333 | 4 ft | 15 kts | 57° |
| 2026-04-29 19:43 | 52.30563 | 4.77474 | 4 ft | 15 kts | 56° |
| 2026-04-29 19:43 | 52.30642 | 4.77577 | 4 ft | 15 kts | 15° |
| 2026-04-29 19:43 | 52.30745 | 4.77595 | 4 ft | 15 kts | 5° |
| 2026-04-29 19:43 | 52.30848 | 4.77607 | 4 ft | 15 kts | 4° |
| 2026-04-29 19:44 | 52.30952 | 4.77615 | 4 ft | 15 kts | 2° |
| 2026-04-29 19:44 | 52.31056 | 4.77624 | 4 ft | 15 kts | 3° |
| 2026-04-29 19:44 | 52.31160 | 4.77633 | 4 ft | 15 kts | 3° |
| 2026-04-29 19:44 | 52.31262 | 4.77643 | 4 ft | 15 kts | 3° |
| 2026-04-29 19:45 | 52.31366 | 4.77653 | 4 ft | 15 kts | 2° |
| 2026-04-29 19:45 | 52.31466 | 4.77619 | 4 ft | 15 kts | 332° |
| 2026-04-29 19:45 | 52.31543 | 4.77505 | 4 ft | 15 kts | 309° |
| 2026-04-29 19:45 | 52.31577 | 4.77341 | 4 ft | 16 kts | 270° |
| 2026-04-29 19:46 | 52.31570 | 4.77159 | 4 ft | 16 kts | 266° |
| 2026-04-29 19:46 | 52.31563 | 4.76968 | 4 ft | 17 kts | 267° |
| 2026-04-29 19:46 | 52.31557 | 4.76771 | 4 ft | 18 kts | 267° |
| 2026-04-29 19:46 | 52.31550 | 4.76562 | 4 ft | 19 kts | 267° |
| 2026-04-29 19:47 | 52.31543 | 4.76346 | 4 ft | 19 kts | 266° |
| 2026-04-29 19:47 | 52.31534 | 4.76134 | 4 ft | 14 kts | 266° |
| 2026-04-29 19:47 | 52.31530 | 4.76013 | 4 ft | 9 kts | 266° |
| 2026-04-29 19:47 | 52.31505 | 4.75928 | 4 ft | 9 kts | 207° |
| 2026-04-29 19:48 | 52.31439 | 4.75920 | 4 ft | 10 kts | 180° |
| 2026-04-29 19:48 | 52.31391 | 4.75925 | 4 ft | 11 kts | 176° |
| 2026-04-29 19:48 | 52.31314 | 4.75932 | 4 ft | 3 kts | 177° |
| 2026-04-29 19:48 | 52.31293 | 4.75951 | 4 ft | 4 kts | 138° |
| 2026-04-29 19:49 | 52.31280 | 4.75988 | 4 ft | 4 kts | 114° |
| 2026-04-29 19:49 | 52.31270 | 4.76031 | 4 ft | 3 kts | 110° |
| 2026-04-29 19:49 | 52.31265 | 4.76052 | 4 ft | 2 kts | 110° |
| 2026-04-29 19:49 | 52.31263 | 4.76059 | 4 ft | 0 kts | 109° |
| 2026-04-29 19:59 | 52.31263 | 4.76058 | 4 ft | 0 kts | 109° |
| 2026-04-29 20:03 | 52.31264 | 4.76058 | -23 ft | 0 kts | 109° |